Buoy 46770

sailwx.info

Track history (hours):
 
Tides and Currents Weather Stations Pressure Air Temp Water Temp Dewpoint Dewpoint Depression Visibility Wind Speed Wind Dir Waves Ship Positions

Drifting buoy 46770

Last reported at 2017-Jan-18 06:00 UTC. Time now 2017-Jan-18 08:07 UTC.
Position N 39°18' W 137°58'.

Barometer 996.1 mb
Water temperature 11.7 ° C

Date/timePositionNaut miles runAvg speedWind from/ knotsBaromVisibWave heightAir tempDewpointWater temp
2017-Jan-18 06:00N 39°18' W 137°58'0 0.0 996.1 11.7
2017-Jan-18 05:00N 39°18' W 137°58'1 1.1 995.4 11.7
2017-Jan-18 04:00N 39°17' W 137°59'0 0.0 994.9 11.7
2017-Jan-18 03:00N 39°17' W 137°59'1 1.1 994.3 11.7
2017-Jan-18 02:00N 39°17' W 138°01'0 0.0 994.4 11.7
2017-Jan-18 01:00N 39°17' W 138°01'0 0.0 995.1 11.7
2017-Jan-18 00:00N 39°17' W 138°01'1 0.9 996.0 11.7
2017-Jan-17 23:00N 39°17' W 138°02'0 0.0 996.9 11.7
2017-Jan-17 22:00N 39°17' W 138°02'2 2.0 998.1 11.7
2017-Jan-17 21:00N 39°19' W 138°03'0 0.5 998.8 11.8
2017-Jan-17 20:00N 39°19' W 138°04'2 2.0 999.5 11.7
2017-Jan-17 19:00N 39°18' W 138°06'1 1.1 1000.0 11.7
2017-Jan-17 18:00N 39°19' W 138°07'3 2.6 999.6 11.7
2017-Jan-17 17:00N 39°17' W 138°10'1 0.6 999.6 11.7
2017-Jan-17 16:00N 39°17' W 138°10'2 2.2 1000.1 11.7
2017-Jan-17 15:00N 39°16' W 138°13'3 2.6 999.8 11.7
2017-Jan-17 14:00N 39°14' W 138°15'0 0.0 999.4 11.7
2017-Jan-17 13:00N 39°14' W 138°15'4 3.6 999.8 11.7
2017-Jan-17 12:00N 39°10' W 138°16'0 0.0 1001.2 11.8
2017-Jan-17 11:00N 39°10' W 138°16'0 0.0 1002.0 11.8
2017-Jan-17 10:00N 39°10' W 138°16'0 0.0 1003.1 11.8
2017-Jan-17 07:00N 39°10' W 138°16'1 0.6 1006.7 11.8
2017-Jan-17 06:00N 39°11' W 138°16'2 0.8 1006.5 11.9
2017-Jan-17 04:00N 39°11' W 138°17'3 1.0 1007.3 12.1
2017-Jan-17 01:00N 39°10' W 138°21'3 2.9 1007.1 12.2
2017-Jan-17 00:00N 39°10' W 138°25'0 0.0 1007.1 12.1
2017-Jan-16 23:00N 39°10' W 138°25'3 3.3 1006.4 12.0
2017-Jan-16 22:00N 39°07' W 138°28'0 0.0 1008.1 12.3
2017-Jan-16 21:00N 39°07' W 138°28'2 1.2 1009.2 12.3
2017-Jan-16 19:00N 39°05' W 138°28'0 0.5 1011.6 12.2
2017-Jan-16 18:00N 39°05' W 138°28'2 2.3 1012.0 12.2
2017-Jan-16 17:00N 39°03' W 138°29'0 0.0 1012.5 12.2
2017-Jan-16 16:00N 39°03' W 138°29'2 1.8 1013.1 12.2
2017-Jan-16 15:00N 39°01' W 138°29'1 1.3 1013.9 12.2
2017-Jan-16 14:00N 39°00' W 138°29'6 6.3 1014.3 12.1
2017-Jan-16 13:00N 38°55' W 138°33'0 0.0 1015.6 12.1
2017-Jan-16 12:00N 38°55' W 138°33'0 0.0 1016.3 12.1
2017-Jan-16 11:00N 38°55' W 138°33'3 0.6 1017.2 12.1
2017-Jan-16 06:00N 38°57' W 138°35'1 0.8 1020.2 12.6
2017-Jan-16 05:00N 38°56' W 138°35'2 0.6 1020.8 12.6
2017-Jan-16 01:00N 38°55' W 138°37'0 0.5 1020.5 12.3
2017-Jan-16 00:00N 38°55' W 138°37'1 0.8 1020.7 12.3
2017-Jan-15 23:00N 38°54' W 138°37'0 0.0 1020.8 12.3
2017-Jan-15 22:00N 38°54' W 138°37'2 0.7 1021.2 12.3
2017-Jan-15 19:00N 38°52' W 138°38'1 0.6 1023.5 12.3
2017-Jan-15 18:00N 38°52' W 138°38'1 0.6 1023.2 12.3
2017-Jan-15 16:00N 38°50' W 138°39'1 0.8 1022.7 12.4
2017-Jan-15 15:00N 38°51' W 138°38'1 0.8 1022.5 12.4
2017-Jan-15 14:00N 38°50' W 138°39'0 0.0 1022.9 12.6
2017-Jan-15 13:00N 38°50' W 138°39'0 0.5 1023.1 12.5
2017-Jan-15 12:00N 38°50' W 138°40'2 1.8 1023.4 12.4
2017-Jan-15 11:00N 38°49' W 138°41'0 0.0 1023.2 12.5
2017-Jan-15 08:00N 38°49' W 138°41'2 1.5 1024.2 12.4
2017-Jan-15 07:00N 38°48' W 138°43'1 0.9 1024.2 12.4
2017-Jan-15 06:00N 38°48' W 138°41'0 0.0 1024.2 12.4
2017-Jan-15 05:00N 38°48' W 138°41'1 0.6 1024.4 12.4
2017-Jan-15 04:00N 38°47' W 138°41'1 0.3 1024.4 12.3
2017-Jan-15 01:00N 38°47' W 138°40'0 0.0 1023.3 12.4
2017-Jan-15 00:00N 38°47' W 138°40'0 0.0 1023.3 12.6
2017-Jan-14 22:00N 38°47' W 138°40'0 0.0 1022.2 12.7
2017-Jan-14 19:00N 38°47' W 138°40'1 0.6 1023.8 12.2
2017-Jan-14 18:00N 38°48' W 138°40'0 0.5 1023.0 12.2
2017-Jan-14 17:00N 38°48' W 138°41'1 1.1 1022.3 12.2
2017-Jan-14 16:00N 38°47' W 138°42'0 0.5 1022.0 12.1
2017-Jan-14 15:00N 38°47' W 138°43'0 0.0 1021.2 12.1
2017-Jan-14 14:00N 38°47' W 138°43'2 1.5 1021.0 12.1
2017-Jan-14 13:00N 38°46' W 138°44'0 0.0 1020.9 12.1
2017-Jan-14 12:00N 38°46' W 138°44'2 1.9 1021.6 12.1
2017-Jan-14 11:00N 38°44' W 138°44'2 1.9 1021.3 12.1
2017-Jan-14 10:00N 38°46' W 138°44'3 0.9 1021.2 12.2
2017-Jan-14 07:00N 38°44' W 138°45'0 0.0 1022.3 12.1
2017-Jan-14 06:00N 38°44' W 138°45'1 0.6 1022.8 12.1
2017-Jan-14 05:00N 38°43' W 138°45'0 0.2 1023.2 12.2
2017-Jan-14 03:00N 38°43' W 138°46'1 0.8 1023.5 12.7
2017-Jan-14 02:00N 38°43' W 138°46'0 0.2 1023.2 12.7
2017-Jan-14 00:00N 38°43' W 138°46'1 1.1 1023.3 12.5
2017-Jan-13 23:00N 38°42' W 138°47'2 1.9 1023.3 12.5
2017-Jan-13 22:00N 38°40' W 138°47'2 0.4 1023.6 12.6
2017-Jan-13 18:00N 38°39' W 138°46'0 0.5 1025.5 12.5
2017-Jan-13 17:00N 38°39' W 138°46'1 0.8 1025.2 12.4
2017-Jan-13 16:00N 38°38' W 138°46'0 0.0 1025.3 12.4
2017-Jan-13 15:00N 38°38' W 138°46'0 0.0 1025.3 12.5
2017-Jan-13 14:00N 38°38' W 138°46'1 1.1 1025.3 12.6
2017-Jan-13 13:00N 38°38' W 138°47'0 0.0 1025.5 12.6
2017-Jan-13 12:00N 38°38' W 138°47'2 1.5 1026.2 12.6
2017-Jan-13 11:00N 38°37' W 138°49'2 1.5 1025.9 12.6
2017-Jan-13 10:00N 38°38' W 138°47'2 0.5 1025.8 12.6
2017-Jan-13 07:00N 38°37' W 138°49'1 1.1 1027.3 12.6
2017-Jan-13 06:00N 38°36' W 138°50'0 0.5 1027.6 12.6
2017-Jan-13 05:00N 38°36' W 138°49'1 0.8 1027.5 12.6
2017-Jan-13 04:00N 38°35' W 138°50'1 1.1 1027.6 12.6
2017-Jan-13 03:00N 38°35' W 138°49'0 0.0 1027.7 12.6
2017-Jan-13 02:00N 38°35' W 138°49'0 0.2 1027.3 12.7
2017-Jan-13 00:00N 38°35' W 138°49'0 0.0 1026.6 12.7
2017-Jan-12 23:00N 38°35' W 138°49'0 0.0 1026.4 12.7
2017-Jan-12 22:00N 38°35' W 138°49'1 0.4 1026.6 12.7
2017-Jan-12 20:00N 38°35' W 138°50'0 0.0 1028.3 12.6
2017-Jan-12 18:00N 38°35' W 138°50'1 0.8 1028.1 12.5
2017-Jan-12 17:00N 38°36' W 138°50'1 0.4 1027.6 12.5
2017-Jan-12 15:00N 38°37' W 138°51'0 0.5 1026.8 12.5
2017-Jan-12 14:00N 38°37' W 138°50'0 0.0 1026.8 12.6
2017-Jan-12 13:00N 38°37' W 138°50'1 0.8 1026.9 12.6
2017-Jan-12 12:00N 38°37' W 138°51'1 0.6 1026.7 12.6
2017-Jan-12 11:00N 38°37' W 138°51'2 0.5 1026.0 12.6
2017-Jan-12 07:00N 38°38' W 138°50'1 0.8 1025.7 12.6
2017-Jan-12 06:00N 38°39' W 138°50'1 0.8 1025.2 12.6
2017-Jan-12 05:00N 38°40' W 138°50'1 0.6 1024.8 12.6
2017-Jan-12 03:00N 38°41' W 138°50'1 0.8 1023.7 12.7
2017-Jan-12 02:00N 38°41' W 138°50'1 0.6 1023.3 12.6
2017-Jan-12 01:00N 38°42' W 138°50'1 0.8 1023.0 12.5
2017-Jan-12 00:00N 38°43' W 138°51'0 0.0 1022.3 12.2
2017-Jan-11 23:00N 38°43' W 138°51'2 1.2 1021.4 12.2
2017-Jan-11 21:00N 38°45' W 138°51'1 0.8 1021.4 12.2
2017-Jan-11 20:00N 38°46' W 138°52'0 0.0 1021.5 12.2
2017-Jan-11 19:00N 38°46' W 138°52'1 1.2 1021.0 12.2
2017-Jan-11 18:00N 38°47' W 138°52'1 0.8 1019.3 12.2
2017-Jan-11 17:00N 38°47' W 138°52'0 0.5 1017.9 12.2
2017-Jan-11 16:00N 38°47' W 138°53'1 0.6 1017.3 12.2
2017-Jan-11 15:00N 38°48' W 138°53'1 0.8 1016.9 12.2
2017-Jan-11 14:00N 38°47' W 138°52'1 1.1 1016.6 12.2
2017-Jan-11 13:00N 38°48' W 138°53'1 1.2 1016.8 12.2
2017-Jan-11 12:00N 38°49' W 138°53'4 3.7 1017.0 12.3
2017-Jan-11 11:00N 38°52' W 138°57'0 0.0 1016.6 12.3
2017-Jan-11 07:00N 38°52' W 138°57'0 0.5 1016.0 12.5
2017-Jan-11 06:00N 38°52' W 138°58'2 1.5 1015.3 12.5
2017-Jan-11 05:00N 38°52' W 138°59'1 0.8 1014.6 12.4
2017-Jan-11 04:00N 38°52' W 139°00'1 0.5 1014.1 12.4
2017-Jan-11 02:00N 38°52' W 139°01'0 0.5 1013.0 12.5
2017-Jan-11 01:00N 38°52' W 139°02'0 0.0 1012.3 12.5
2017-Jan-11 00:00N 38°52' W 139°02'3 2.8 1011.4 12.5
2017-Jan-10 23:00N 38°54' W 139°00'0 0.0 1010.3 12.5
2017-Jan-10 22:00N 38°54' W 139°00'0 0.0 1009.2 12.4
2017-Jan-10 21:00N 38°54' W 139°00'2 1.0 1008.5 12.3
2017-Jan-10 19:00N 38°56' W 139°01'0 0.0 1005.1 12.3
2017-Jan-10 18:00N 38°56' W 139°01'1 1.1 1002.8 12.2
2017-Jan-10 17:00N 38°56' W 139°02'1 1.1 1001.6 12.2
2017-Jan-10 16:00N 38°57' W 139°04'0 0.5 1000.3 12.2
2017-Jan-10 15:00N 38°57' W 139°04'1 1.1 999.8 12.2
2017-Jan-10 14:00N 38°58' W 139°05'2 1.5 999.8 12.2
2017-Jan-10 13:00N 38°57' W 139°07'0 0.0 999.8 12.2
2017-Jan-10 12:00N 38°57' W 139°07'2 1.5 999.8 12.3
2017-Jan-10 11:00N 38°58' W 139°09'2 0.6 999.4 12.4
2017-Jan-10 08:00N 38°56' W 139°11'0 0.0 998.6 12.7
2017-Jan-10 07:00N 38°56' W 139°11'0 0.5 997.9 12.6
2017-Jan-10 06:00N 38°56' W 139°10'1 1.1 998.8 12.5
2017-Jan-10 05:00N 38°56' W 139°09'1 0.8 998.5 12.4
2017-Jan-10 04:00N 38°56' W 139°08'0 0.5 999.9 12.3
2017-Jan-10 03:00N 38°56' W 139°08'1 0.5 1001.0 12.3
2017-Jan-10 01:00N 38°56' W 139°07'0 0.0 1003.4 12.3
2017-Jan-10 00:00N 38°56' W 139°07'0 0.0 1004.6 12.3
2017-Jan-09 23:00N 38°56' W 139°07'2 1.2 1005.5 12.4
2017-Jan-09 21:00N 38°56' W 139°10'0 0.0 1007.3 12.7
2017-Jan-09 20:00N 38°56' W 139°10'1 1.4 1008.2 12.7
2017-Jan-09 19:00N 38°56' W 139°11'0 0.5 1007.9 12.8
2017-Jan-09 18:00N 38°56' W 139°12'1 0.6 1007.8 12.8
2017-Jan-09 17:00N 38°57' W 139°12'1 1.4 1007.3 12.8
2017-Jan-09 16:00N 38°57' W 139°14'1 0.6 1007.0 12.8
2017-Jan-09 15:00N 38°56' W 139°14'1 1.1 1006.7 12.8
2017-Jan-09 14:00N 38°57' W 139°15'1 1.4 1007.0 12.8
2017-Jan-09 13:00N 38°57' W 139°17'3 3.0 1006.9 12.8
2017-Jan-09 12:00N 38°58' W 139°20'3 3.0 1007.7 12.9
2017-Jan-09 11:00N 38°57' W 139°17'4 0.9 1007.3 12.9
2017-Jan-09 07:00N 38°59' W 139°21'1 1.1 1007.8 12.9
2017-Jan-09 06:00N 38°59' W 139°22'2 0.8 1008.2 13.0
2017-Jan-09 04:00N 39°01' W 139°23'1 1.1 1007.6 13.0
2017-Jan-09 03:00N 39°01' W 139°25'0 0.5 1007.0 13.1
2017-Jan-09 02:00N 39°01' W 139°25'2 1.8 1006.7 13.0
2017-Jan-09 01:00N 39°02' W 139°27'2 0.9 1006.5 13.0
2017-Jan-08 23:00N 39°04' W 139°29'2 1.5 1005.3 12.9
2017-Jan-08 22:00N 39°05' W 139°30'0 0.0 1005.4 12.8
2017-Jan-08 21:00N 39°05' W 139°30'0 0.0 1006.1 12.9
2017-Jan-08 20:00N 39°05' W 139°30'2 2.3 1006.0 12.9
2017-Jan-08 19:00N 39°07' W 139°32'1 0.6 1005.7 12.9
2017-Jan-08 18:00N 39°07' W 139°32'1 0.8 1005.1 12.9
2017-Jan-08 17:00N 39°07' W 139°32'2 2.2 1004.4 12.9
2017-Jan-08 16:00N 39°08' W 139°35'1 0.6 1003.5 12.9
2017-Jan-08 15:00N 39°08' W 139°35'2 2.2 1002.8 12.9
2017-Jan-08 14:00N 39°10' W 139°37'0 0.0 1002.3 12.9
2017-Jan-08 13:00N 39°10' W 139°37'5 4.6 1002.1 12.9
2017-Jan-08 12:00N 39°11' W 139°43'4 4.1 1002.3 12.9
2017-Jan-08 11:00N 39°10' W 139°38'4 1.0 1002.3 12.9
2017-Jan-08 07:00N 39°11' W 139°43'1 0.8 1002.3 12.9
2017-Jan-08 06:00N 39°12' W 139°43'   1002.1 12.9
Track history (hours):
 
Tides and Currents Weather Stations Pressure Air Temp Water Temp Dewpoint Dewpoint Depression Visibility Wind Speed Wind Dir Waves Ship Positions

Drifting buoy 46770

Last reported at 2017-Jan-18 06:00 UTC. Time now 2017-Jan-18 08:07 UTC.
Position N 39°18' W 137°58'.

Barometer 996.1 mb
Water temperature 11.7 ° C

Date/timePositionNaut miles runAvg speedWind from/ knotsBaromVisibWave heightAir tempDewpointWater temp
2017-Jan-18 06:00N 39°18' W 137°58'0 0.0 996.1 11.7
2017-Jan-18 05:00N 39°18' W 137°58'1 1.1 995.4 11.7
2017-Jan-18 04:00N 39°17' W 137°59'0 0.0 994.9 11.7
2017-Jan-18 03:00N 39°17' W 137°59'1 1.1 994.3 11.7
2017-Jan-18 02:00N 39°17' W 138°01'0 0.0 994.4 11.7
2017-Jan-18 01:00N 39°17' W 138°01'0 0.0 995.1 11.7
2017-Jan-18 00:00N 39°17' W 138°01'1 0.9 996.0 11.7
2017-Jan-17 23:00N 39°17' W 138°02'0 0.0 996.9 11.7
2017-Jan-17 22:00N 39°17' W 138°02'2 2.0 998.1 11.7
2017-Jan-17 21:00N 39°19' W 138°03'0 0.5 998.8 11.8
2017-Jan-17 20:00N 39°19' W 138°04'2 2.0 999.5 11.7
2017-Jan-17 19:00N 39°18' W 138°06'1 1.1 1000.0 11.7
2017-Jan-17 18:00N 39°19' W 138°07'3 2.6 999.6 11.7
2017-Jan-17 17:00N 39°17' W 138°10'1 0.6 999.6 11.7
2017-Jan-17 16:00N 39°17' W 138°10'2 2.2 1000.1 11.7
2017-Jan-17 15:00N 39°16' W 138°13'3 2.6 999.8 11.7
2017-Jan-17 14:00N 39°14' W 138°15'0 0.0 999.4 11.7
2017-Jan-17 13:00N 39°14' W 138°15'4 3.6 999.8 11.7
2017-Jan-17 12:00N 39°10' W 138°16'0 0.0 1001.2 11.8
2017-Jan-17 11:00N 39°10' W 138°16'0 0.0 1002.0 11.8
2017-Jan-17 10:00N 39°10' W 138°16'0 0.0 1003.1 11.8
2017-Jan-17 07:00N 39°10' W 138°16'1 0.6 1006.7 11.8
2017-Jan-17 06:00N 39°11' W 138°16'2 0.8 1006.5 11.9
2017-Jan-17 04:00N 39°11' W 138°17'3 1.0 1007.3 12.1
2017-Jan-17 01:00N 39°10' W 138°21'3 2.9 1007.1 12.2
2017-Jan-17 00:00N 39°10' W 138°25'0 0.0 1007.1 12.1
2017-Jan-16 23:00N 39°10' W 138°25'3 3.3 1006.4 12.0
2017-Jan-16 22:00N 39°07' W 138°28'0 0.0 1008.1 12.3
2017-Jan-16 21:00N 39°07' W 138°28'2 1.2 1009.2 12.3
2017-Jan-16 19:00N 39°05' W 138°28'0 0.5 1011.6 12.2
2017-Jan-16 18:00N 39°05' W 138°28'2 2.3 1012.0 12.2
2017-Jan-16 17:00N 39°03' W 138°29'0 0.0 1012.5 12.2
2017-Jan-16 16:00N 39°03' W 138°29'2 1.8 1013.1 12.2
2017-Jan-16 15:00N 39°01' W 138°29'1 1.3 1013.9 12.2
2017-Jan-16 14:00N 39°00' W 138°29'6 6.3 1014.3 12.1
2017-Jan-16 13:00N 38°55' W 138°33'0 0.0 1015.6 12.1
2017-Jan-16 12:00N 38°55' W 138°33'0 0.0 1016.3 12.1
2017-Jan-16 11:00N 38°55' W 138°33'3 0.6 1017.2 12.1
2017-Jan-16 06:00N 38°57' W 138°35'1 0.8 1020.2 12.6
2017-Jan-16 05:00N 38°56' W 138°35'2 0.6 1020.8 12.6
2017-Jan-16 01:00N 38°55' W 138°37'0 0.5 1020.5 12.3
2017-Jan-16 00:00N 38°55' W 138°37'1 0.8 1020.7 12.3
2017-Jan-15 23:00N 38°54' W 138°37'0 0.0 1020.8 12.3
2017-Jan-15 22:00N 38°54' W 138°37'2 0.7 1021.2 12.3
2017-Jan-15 19:00N 38°52' W 138°38'1 0.6 1023.5 12.3
2017-Jan-15 18:00N 38°52' W 138°38'1 0.6 1023.2 12.3
2017-Jan-15 16:00N 38°50' W 138°39'1 0.8 1022.7 12.4
2017-Jan-15 15:00N 38°51' W 138°38'1 0.8 1022.5 12.4
2017-Jan-15 14:00N 38°50' W 138°39'0 0.0 1022.9 12.6
2017-Jan-15 13:00N 38°50' W 138°39'0 0.5 1023.1 12.5
2017-Jan-15 12:00N 38°50' W 138°40'2 1.8 1023.4 12.4
2017-Jan-15 11:00N 38°49' W 138°41'0 0.0 1023.2 12.5
2017-Jan-15 08:00N 38°49' W 138°41'2 1.5 1024.2 12.4
2017-Jan-15 07:00N 38°48' W 138°43'1 0.9 1024.2 12.4
2017-Jan-15 06:00N 38°48' W 138°41'0 0.0 1024.2 12.4
2017-Jan-15 05:00N 38°48' W 138°41'1 0.6 1024.4 12.4
2017-Jan-15 04:00N 38°47' W 138°41'1 0.3 1024.4 12.3
2017-Jan-15 01:00N 38°47' W 138°40'0 0.0 1023.3 12.4
2017-Jan-15 00:00N 38°47' W 138°40'0 0.0 1023.3 12.6
2017-Jan-14 22:00N 38°47' W 138°40'0 0.0 1022.2 12.7
2017-Jan-14 19:00N 38°47' W 138°40'1 0.6 1023.8 12.2
2017-Jan-14 18:00N 38°48' W 138°40'0 0.5 1023.0 12.2
2017-Jan-14 17:00N 38°48' W 138°41'1 1.1 1022.3 12.2
2017-Jan-14 16:00N 38°47' W 138°42'0 0.5 1022.0 12.1
2017-Jan-14 15:00N 38°47' W 138°43'0 0.0 1021.2 12.1
2017-Jan-14 14:00N 38°47' W 138°43'2 1.5 1021.0 12.1
2017-Jan-14 13:00N 38°46' W 138°44'0 0.0 1020.9 12.1
2017-Jan-14 12:00N 38°46' W 138°44'2 1.9 1021.6 12.1
2017-Jan-14 11:00N 38°44' W 138°44'2 1.9 1021.3 12.1
2017-Jan-14 10:00N 38°46' W 138°44'3 0.9 1021.2 12.2
2017-Jan-14 07:00N 38°44' W 138°45'0 0.0 1022.3 12.1
2017-Jan-14 06:00N 38°44' W 138°45'1 0.6 1022.8 12.1
2017-Jan-14 05:00N 38°43' W 138°45'0 0.2 1023.2 12.2
2017-Jan-14 03:00N 38°43' W 138°46'1 0.8 1023.5 12.7
2017-Jan-14 02:00N 38°43' W 138°46'0 0.2 1023.2 12.7
2017-Jan-14 00:00N 38°43' W 138°46'1 1.1 1023.3 12.5
2017-Jan-13 23:00N 38°42' W 138°47'2 1.9 1023.3 12.5
2017-Jan-13 22:00N 38°40' W 138°47'2 0.4 1023.6 12.6
2017-Jan-13 18:00N 38°39' W 138°46'0 0.5 1025.5 12.5
2017-Jan-13 17:00N 38°39' W 138°46'1 0.8 1025.2 12.4
2017-Jan-13 16:00N 38°38' W 138°46'0 0.0 1025.3 12.4
2017-Jan-13 15:00N 38°38' W 138°46'0 0.0 1025.3 12.5
2017-Jan-13 14:00N 38°38' W 138°46'1 1.1 1025.3 12.6
2017-Jan-13 13:00N 38°38' W 138°47'0 0.0 1025.5 12.6
2017-Jan-13 12:00N 38°38' W 138°47'2 1.5 1026.2 12.6
2017-Jan-13 11:00N 38°37' W 138°49'2 1.5 1025.9 12.6
2017-Jan-13 10:00N 38°38' W 138°47'2 0.5 1025.8 12.6
2017-Jan-13 07:00N 38°37' W 138°49'1 1.1 1027.3 12.6
2017-Jan-13 06:00N 38°36' W 138°50'0 0.5 1027.6 12.6
2017-Jan-13 05:00N 38°36' W 138°49'1 0.8 1027.5 12.6
2017-Jan-13 04:00N 38°35' W 138°50'1 1.1 1027.6 12.6
2017-Jan-13 03:00N 38°35' W 138°49'0 0.0 1027.7 12.6
2017-Jan-13 02:00N 38°35' W 138°49'0 0.2 1027.3 12.7
2017-Jan-13 00:00N 38°35' W 138°49'0 0.0 1026.6 12.7
2017-Jan-12 23:00N 38°35' W 138°49'0 0.0 1026.4 12.7
2017-Jan-12 22:00N 38°35' W 138°49'1 0.4 1026.6 12.7
2017-Jan-12 20:00N 38°35' W 138°50'0 0.0 1028.3 12.6
2017-Jan-12 18:00N 38°35' W 138°50'1 0.8 1028.1 12.5
2017-Jan-12 17:00N 38°36' W 138°50'1 0.4 1027.6 12.5
2017-Jan-12 15:00N 38°37' W 138°51'0 0.5 1026.8 12.5
2017-Jan-12 14:00N 38°37' W 138°50'0 0.0 1026.8 12.6
2017-Jan-12 13:00N 38°37' W 138°50'1 0.8 1026.9 12.6
2017-Jan-12 12:00N 38°37' W 138°51'1 0.6 1026.7 12.6
2017-Jan-12 11:00N 38°37' W 138°51'2 0.5 1026.0 12.6
2017-Jan-12 07:00N 38°38' W 138°50'1 0.8 1025.7 12.6
2017-Jan-12 06:00N 38°39' W 138°50'1 0.8 1025.2 12.6
2017-Jan-12 05:00N 38°40' W 138°50'1 0.6 1024.8 12.6
2017-Jan-12 03:00N 38°41' W 138°50'1 0.8 1023.7 12.7
2017-Jan-12 02:00N 38°41' W 138°50'1 0.6 1023.3 12.6
2017-Jan-12 01:00N 38°42' W 138°50'1 0.8 1023.0 12.5
2017-Jan-12 00:00N 38°43' W 138°51'0 0.0 1022.3 12.2
2017-Jan-11 23:00N 38°43' W 138°51'2 1.2 1021.4 12.2
2017-Jan-11 21:00N 38°45' W 138°51'1 0.8 1021.4 12.2
2017-Jan-11 20:00N 38°46' W 138°52'0 0.0 1021.5 12.2
2017-Jan-11 19:00N 38°46' W 138°52'1 1.2 1021.0 12.2
2017-Jan-11 18:00N 38°47' W 138°52'1 0.8 1019.3 12.2
2017-Jan-11 17:00N 38°47' W 138°52'0 0.5 1017.9 12.2
2017-Jan-11 16:00N 38°47' W 138°53'1 0.6 1017.3 12.2
2017-Jan-11 15:00N 38°48' W 138°53'1 0.8 1016.9 12.2
2017-Jan-11 14:00N 38°47' W 138°52'1 1.1 1016.6 12.2
2017-Jan-11 13:00N 38°48' W 138°53'1 1.2 1016.8 12.2
2017-Jan-11 12:00N 38°49' W 138°53'4 3.7 1017.0 12.3
2017-Jan-11 11:00N 38°52' W 138°57'0 0.0 1016.6 12.3
2017-Jan-11 07:00N 38°52' W 138°57'0 0.5 1016.0 12.5
2017-Jan-11 06:00N 38°52' W 138°58'2 1.5 1015.3 12.5
2017-Jan-11 05:00N 38°52' W 138°59'1 0.8 1014.6 12.4
2017-Jan-11 04:00N 38°52' W 139°00'1 0.5 1014.1 12.4
2017-Jan-11 02:00N 38°52' W 139°01'0 0.5 1013.0 12.5
2017-Jan-11 01:00N 38°52' W 139°02'0 0.0 1012.3 12.5
2017-Jan-11 00:00N 38°52' W 139°02'3 2.8 1011.4 12.5
2017-Jan-10 23:00N 38°54' W 139°00'0 0.0 1010.3 12.5
2017-Jan-10 22:00N 38°54' W 139°00'0 0.0 1009.2 12.4
2017-Jan-10 21:00N 38°54' W 139°00'2 1.0 1008.5 12.3
2017-Jan-10 19:00N 38°56' W 139°01'0 0.0 1005.1 12.3
2017-Jan-10 18:00N 38°56' W 139°01'1 1.1 1002.8 12.2
2017-Jan-10 17:00N 38°56' W 139°02'1 1.1 1001.6 12.2
2017-Jan-10 16:00N 38°57' W 139°04'0 0.5 1000.3 12.2
2017-Jan-10 15:00N 38°57' W 139°04'1 1.1 999.8 12.2
2017-Jan-10 14:00N 38°58' W 139°05'2 1.5 999.8 12.2
2017-Jan-10 13:00N 38°57' W 139°07'0 0.0 999.8 12.2
2017-Jan-10 12:00N 38°57' W 139°07'2 1.5 999.8 12.3
2017-Jan-10 11:00N 38°58' W 139°09'2 0.6 999.4 12.4
2017-Jan-10 08:00N 38°56' W 139°11'0 0.0 998.6 12.7
2017-Jan-10 07:00N 38°56' W 139°11'0 0.5 997.9 12.6
2017-Jan-10 06:00N 38°56' W 139°10'1 1.1 998.8 12.5
2017-Jan-10 05:00N 38°56' W 139°09'1 0.8 998.5 12.4
2017-Jan-10 04:00N 38°56' W 139°08'0 0.5 999.9 12.3
2017-Jan-10 03:00N 38°56' W 139°08'1 0.5 1001.0 12.3
2017-Jan-10 01:00N 38°56' W 139°07'0 0.0 1003.4 12.3
2017-Jan-10 00:00N 38°56' W 139°07'0 0.0 1004.6 12.3
2017-Jan-09 23:00N 38°56' W 139°07'2 1.2 1005.5 12.4
2017-Jan-09 21:00N 38°56' W 139°10'0 0.0 1007.3 12.7
2017-Jan-09 20:00N 38°56' W 139°10'1 1.4 1008.2 12.7
2017-Jan-09 19:00N 38°56' W 139°11'0 0.5 1007.9 12.8
2017-Jan-09 18:00N 38°56' W 139°12'1 0.6 1007.8 12.8
2017-Jan-09 17:00N 38°57' W 139°12'1 1.4 1007.3 12.8
2017-Jan-09 16:00N 38°57' W 139°14'1 0.6 1007.0 12.8
2017-Jan-09 15:00N 38°56' W 139°14'1 1.1 1006.7 12.8
2017-Jan-09 14:00N 38°57' W 139°15'1 1.4 1007.0 12.8
2017-Jan-09 13:00N 38°57' W 139°17'3 3.0 1006.9 12.8
2017-Jan-09 12:00N 38°58' W 139°20'3 3.0 1007.7 12.9
2017-Jan-09 11:00N 38°57' W 139°17'4 0.9 1007.3 12.9
2017-Jan-09 07:00N 38°59' W 139°21'1 1.1 1007.8 12.9
2017-Jan-09 06:00N 38°59' W 139°22'2 0.8 1008.2 13.0
2017-Jan-09 04:00N 39°01' W 139°23'1 1.1 1007.6 13.0
2017-Jan-09 03:00N 39°01' W 139°25'0 0.5 1007.0 13.1
2017-Jan-09 02:00N 39°01' W 139°25'2 1.8 1006.7 13.0
2017-Jan-09 01:00N 39°02' W 139°27'2 0.9 1006.5 13.0
2017-Jan-08 23:00N 39°04' W 139°29'2 1.5 1005.3 12.9
2017-Jan-08 22:00N 39°05' W 139°30'0 0.0 1005.4 12.8
2017-Jan-08 21:00N 39°05' W 139°30'0 0.0 1006.1 12.9
2017-Jan-08 20:00N 39°05' W 139°30'2 2.3 1006.0 12.9
2017-Jan-08 19:00N 39°07' W 139°32'1 0.6 1005.7 12.9
2017-Jan-08 18:00N 39°07' W 139°32'1 0.8 1005.1 12.9
2017-Jan-08 17:00N 39°07' W 139°32'2 2.2 1004.4 12.9
2017-Jan-08 16:00N 39°08' W 139°35'1 0.6 1003.5 12.9
2017-Jan-08 15:00N 39°08' W 139°35'2 2.2 1002.8 12.9
2017-Jan-08 14:00N 39°10' W 139°37'0 0.0 1002.3 12.9
2017-Jan-08 13:00N 39°10' W 139°37'5 4.6 1002.1 12.9
2017-Jan-08 12:00N 39°11' W 139°43'4 4.1 1002.3 12.9
2017-Jan-08 11:00N 39°10' W 139°38'4 1.0 1002.3 12.9
2017-Jan-08 07:00N 39°11' W 139°43'1 0.8 1002.3 12.9
2017-Jan-08 06:00N 39°12' W 139°43'   1002.1 12.9

Dump ship's entire track history